sensor_id;sensor_type;location;lat;lon;timestamp;temperature;humidity
790;DHT22;378;48.844;9.156;2024-02-23T00:01:08;5.80;99.90
790;DHT22;378;48.844;9.156;2024-02-23T00:03:37;5.80;99.90
790;DHT22;378;48.844;9.156;2024-02-23T00:06:04;5.80;99.90
790;DHT22;378;48.844;9.156;2024-02-23T00:08:31;5.80;99.90
790;DHT22;378;48.844;9.156;2024-02-23T00:10:58;6.00;99.90
790;DHT22;378;48.844;9.156;2024-02-23T00:13:25;6.00;99.90
790;DHT22;378;48.844;9.156;2024-02-23T00:15:51;6.00;99.90
790;DHT22;378;48.844;9.156;2024-02-23T00:18:20;6.00;99.90
790;DHT22;378;48.844;9.156;2024-02-23T00:20:47;6.00;99.90
790;DHT22;378;48.844;9.156;2024-02-23T00:23:14;6.10;99.90
790;DHT22;378;48.844;9.156;2024-02-23T00:25:41;6.10;99.90
790;DHT22;378;48.844;9.156;2024-02-23T00:28:08;6.20;99.90
790;DHT22;378;48.844;9.156;2024-02-23T00:30:35;6.20;99.90
790;DHT22;378;48.844;9.156;2024-02-23T00:33:02;6.20;99.90
790;DHT22;378;48.844;9.156;2024-02-23T00:35:30;6.20;99.90
790;DHT22;378;48.844;9.156;2024-02-23T00:37:57;6.30;99.90
790;DHT22;378;48.844;9.156;2024-02-23T00:40:24;6.30;99.90
790;DHT22;378;48.844;9.156;2024-02-23T00:42:51;6.30;99.90
790;DHT22;378;48.844;9.156;2024-02-23T00:45:18;6.40;99.90
790;DHT22;378;48.844;9.156;2024-02-23T00:47:45;6.40;99.90
790;DHT22;378;48.844;9.156;2024-02-23T00:50:12;6.40;99.90
790;DHT22;378;48.844;9.156;2024-02-23T00:52:40;6.40;99.90
790;DHT22;378;48.844;9.156;2024-02-23T00:55:08;6.50;99.90
790;DHT22;378;48.844;9.156;2024-02-23T00:57:35;6.50;99.90
790;DHT22;378;48.844;9.156;2024-02-23T01:00:02;6.50;99.90
790;DHT22;378;48.844;9.156;2024-02-23T01:02:30;6.50;99.90
790;DHT22;378;48.844;9.156;2024-02-23T01:04:58;6.50;99.90
790;DHT22;378;48.844;9.156;2024-02-23T01:07:25;6.50;99.90
790;DHT22;378;48.844;9.156;2024-02-23T01:09:53;6.50;99.90
790;DHT22;378;48.844;9.156;2024-02-23T01:12:20;6.60;99.90
790;DHT22;378;48.844;9.156;2024-02-23T01:14:47;6.50;99.90
790;DHT22;378;48.844;9.156;2024-02-23T01:17:14;6.60;99.90
790;DHT22;378;48.844;9.156;2024-02-23T01:19:42;6.60;99.90
790;DHT22;378;48.844;9.156;2024-02-23T01:22:09;6.60;99.90
790;DHT22;378;48.844;9.156;2024-02-23T01:24:36;6.60;99.90
790;DHT22;378;48.844;9.156;2024-02-23T01:27:05;6.60;99.90
790;DHT22;378;48.844;9.156;2024-02-23T01:29:31;6.60;99.90
790;DHT22;378;48.844;9.156;2024-02-23T01:31:58;6.60;99.90
790;DHT22;378;48.844;9.156;2024-02-23T01:34:25;6.60;99.90
790;DHT22;378;48.844;9.156;2024-02-23T01:36:52;6.60;99.90
790;DHT22;378;48.844;9.156;2024-02-23T01:39:19;6.60;99.90
790;DHT22;378;48.844;9.156;2024-02-23T01:41:46;6.60;99.90
790;DHT22;378;48.844;9.156;2024-02-23T01:44:14;6.60;99.90
790;DHT22;378;48.844;9.156;2024-02-23T01:46:42;6.60;99.90
790;DHT22;378;48.844;9.156;2024-02-23T01:49:09;6.70;99.90
790;DHT22;378;48.844;9.156;2024-02-23T01:51:36;6.70;99.90
790;DHT22;378;48.844;9.156;2024-02-23T01:54:03;6.80;99.90
790;DHT22;378;48.844;9.156;2024-02-23T01:56:31;6.80;99.90
790;DHT22;378;48.844;9.156;2024-02-23T01:58:59;6.80;99.90
790;DHT22;378;48.844;9.156;2024-02-23T02:01:30;6.90;99.90
790;DHT22;378;48.844;9.156;2024-02-23T02:03:57;6.90;99.90
790;DHT22;378;48.844;9.156;2024-02-23T02:06:24;6.90;99.90
790;DHT22;378;48.844;9.156;2024-02-23T02:08:51;7.00;99.90
790;DHT22;378;48.844;9.156;2024-02-23T02:11:18;7.00;99.90
790;DHT22;378;48.844;9.156;2024-02-23T02:13:45;7.10;99.90
790;DHT22;378;48.844;9.156;2024-02-23T02:16:12;7.10;99.90
790;DHT22;378;48.844;9.156;2024-02-23T02:18:40;7.00;99.90
790;DHT22;378;48.844;9.156;2024-02-23T02:21:07;6.90;99.90
790;DHT22;378;48.844;9.156;2024-02-23T02:23:33;6.80;99.90
790;DHT22;378;48.844;9.156;2024-02-23T02:26:03;6.70;99.90
790;DHT22;378;48.844;9.156;2024-02-23T02:28:30;6.50;99.90
790;DHT22;378;48.844;9.156;2024-02-23T02:30:56;6.40;99.90
790;DHT22;378;48.844;9.156;2024-02-23T02:33:23;6.40;99.90
790;DHT22;378;48.844;9.156;2024-02-23T02:35:52;6.30;99.90
790;DHT22;378;48.844;9.156;2024-02-23T02:38:18;6.20;99.90
790;DHT22;378;48.844;9.156;2024-02-23T02:40:45;6.20;99.90
790;DHT22;378;48.844;9.156;2024-02-23T02:43:12;6.20;99.90
790;DHT22;378;48.844;9.156;2024-02-23T02:45:39;6.20;99.90
790;DHT22;378;48.844;9.156;2024-02-23T02:48:07;6.20;99.90
790;DHT22;378;48.844;9.156;2024-02-23T02:50:34;6.20;99.90
790;DHT22;378;48.844;9.156;2024-02-23T02:53:02;6.20;99.90
790;DHT22;378;48.844;9.156;2024-02-23T02:55:29;6.20;99.90
790;DHT22;378;48.844;9.156;2024-02-23T02:57:56;6.20;99.90
790;DHT22;378;48.844;9.156;2024-02-23T03:00:22;6.30;99.90
790;DHT22;378;48.844;9.156;2024-02-23T03:02:49;6.30;99.90
790;DHT22;378;48.844;9.156;2024-02-23T03:05:16;6.30;99.90
790;DHT22;378;48.844;9.156;2024-02-23T03:07:43;6.30;99.90
790;DHT22;378;48.844;9.156;2024-02-23T03:10:11;6.30;99.90
790;DHT22;378;48.844;9.156;2024-02-23T03:12:38;6.30;99.90
790;DHT22;378;48.844;9.156;2024-02-23T03:15:05;6.30;99.90
790;DHT22;378;48.844;9.156;2024-02-23T03:17:32;6.20;99.90
790;DHT22;378;48.844;9.156;2024-02-23T03:19:59;6.20;99.90
790;DHT22;378;48.844;9.156;2024-02-23T03:22:26;6.20;99.90
790;DHT22;378;48.844;9.156;2024-02-23T04:15:04;6.40;99.90
790;DHT22;378;48.844;9.156;2024-02-23T05:20:37;6.00;99.90
790;DHT22;378;48.844;9.156;2024-02-23T07:00:55;5.80;99.90
790;DHT22;378;48.844;9.156;2024-02-23T07:04:44;5.90;99.90
790;DHT22;378;48.844;9.156;2024-02-23T07:14:52;6.00;99.90
790;DHT22;378;48.844;9.156;2024-02-23T07:28:43;6.00;99.90
790;DHT22;378;48.844;9.156;2024-02-23T07:32:03;6.00;99.90
790;DHT22;378;48.844;9.156;2024-02-23T07:43:27;5.90;99.90
790;DHT22;378;48.844;9.156;2024-02-23T07:50:43;5.80;99.90
790;DHT22;378;48.844;9.156;2024-02-23T08:48:53;5.90;99.90
790;DHT22;378;48.844;9.156;2024-02-23T09:51:04;6.30;99.90
790;DHT22;378;48.844;9.156;2024-02-23T09:54:18;6.20;99.90
790;DHT22;378;48.844;9.156;2024-02-23T09:57:22;6.10;99.90
790;DHT22;378;48.844;9.156;2024-02-23T10:00:47;6.30;99.90
790;DHT22;378;48.844;9.156;2024-02-23T10:22:47;7.00;99.90
790;DHT22;378;48.844;9.156;2024-02-23T10:54:09;7.70;99.90
790;DHT22;378;48.844;9.156;2024-02-23T10:57:06;7.80;99.90
790;DHT22;378;48.844;9.156;2024-02-23T11:27:30;8.20;99.90
790;DHT22;378;48.844;9.156;2024-02-23T11:38:50;8.50;99.90
790;DHT22;378;48.844;9.156;2024-02-23T11:42:18;8.50;99.90
790;DHT22;378;48.844;9.156;2024-02-23T11:45:25;8.50;99.90
790;DHT22;378;48.844;9.156;2024-02-23T11:48:22;8.50;99.90
790;DHT22;378;48.844;9.156;2024-02-23T11:51:21;8.50;99.90
790;DHT22;378;48.844;9.156;2024-02-23T11:54:34;8.50;99.90
790;DHT22;378;48.844;9.156;2024-02-23T11:57:40;8.50;99.90
790;DHT22;378;48.844;9.156;2024-02-23T12:00:47;8.60;99.90
790;DHT22;378;48.844;9.156;2024-02-23T12:10:56;8.60;99.90
790;DHT22;378;48.844;9.156;2024-02-23T12:31:17;8.30;99.90
790;DHT22;378;48.844;9.156;2024-02-23T12:37:32;8.30;99.90
790;DHT22;378;48.844;9.156;2024-02-23T12:40:50;8.20;99.90
790;DHT22;378;48.844;9.156;2024-02-23T12:43:47;8.30;99.90
790;DHT22;378;48.844;9.156;2024-02-23T12:49:26;8.60;99.90
790;DHT22;378;48.844;9.156;2024-02-23T12:52:01;8.60;99.90
790;DHT22;378;48.844;9.156;2024-02-23T12:54:41;8.60;99.90
790;DHT22;378;48.844;9.156;2024-02-23T12:57:21;8.70;99.90
790;DHT22;378;48.844;9.156;2024-02-23T12:59:59;8.70;99.90
790;DHT22;378;48.844;9.156;2024-02-23T13:02:33;8.70;99.90
790;DHT22;378;48.844;9.156;2024-02-23T13:05:37;8.80;99.90
790;DHT22;378;48.844;9.156;2024-02-23T13:08:25;8.80;99.90
790;DHT22;378;48.844;9.156;2024-02-23T13:14:04;9.00;99.90
790;DHT22;378;48.844;9.156;2024-02-23T13:16:54;9.00;99.90
790;DHT22;378;48.844;9.156;2024-02-23T13:19:27;9.00;99.90
790;DHT22;378;48.844;9.156;2024-02-23T13:22:34;8.90;99.90
790;DHT22;378;48.844;9.156;2024-02-23T13:25:09;8.90;99.90
790;DHT22;378;48.844;9.156;2024-02-23T13:28:02;9.00;99.90
790;DHT22;378;48.844;9.156;2024-02-23T13:30:47;8.90;99.90
790;DHT22;378;48.844;9.156;2024-02-23T13:33:39;8.90;99.90
790;DHT22;378;48.844;9.156;2024-02-23T13:36:21;8.90;99.90
790;DHT22;378;48.844;9.156;2024-02-23T13:39:02;9.00;99.90
790;DHT22;378;48.844;9.156;2024-02-23T13:41:51;8.90;99.90
790;DHT22;378;48.844;9.156;2024-02-23T13:44:34;8.90;99.90
790;DHT22;378;48.844;9.156;2024-02-23T13:47:32;9.00;99.90
790;DHT22;378;48.844;9.156;2024-02-23T13:50:24;9.10;99.90
790;DHT22;378;48.844;9.156;2024-02-23T13:53:07;9.10;99.90
790;DHT22;378;48.844;9.156;2024-02-23T13:55:50;9.10;99.90
790;DHT22;378;48.844;9.156;2024-02-23T13:58:47;9.20;99.90
790;DHT22;378;48.844;9.156;2024-02-23T14:01:25;9.10;99.90
790;DHT22;378;48.844;9.156;2024-02-23T14:04:14;8.90;99.90
790;DHT22;378;48.844;9.156;2024-02-23T14:06:58;8.80;99.90
790;DHT22;378;48.844;9.156;2024-02-23T14:09:25;8.70;99.90
790;DHT22;378;48.844;9.156;2024-02-23T14:11:52;8.70;99.90
790;DHT22;378;48.844;9.156;2024-02-23T14:14:19;8.80;99.90
790;DHT22;378;48.844;9.156;2024-02-23T14:16:46;8.80;99.90
790;DHT22;378;48.844;9.156;2024-02-23T14:19:34;8.90;99.90
790;DHT22;378;48.844;9.156;2024-02-23T14:22:32;9.00;99.90
790;DHT22;378;48.844;9.156;2024-02-23T14:25:34;9.00;99.90
790;DHT22;378;48.844;9.156;2024-02-23T14:28:08;9.10;99.90
790;DHT22;378;48.844;9.156;2024-02-23T14:31:01;9.20;99.90
790;DHT22;378;48.844;9.156;2024-02-23T14:33:44;9.20;99.90
790;DHT22;378;48.844;9.156;2024-02-23T14:36:22;9.30;99.90
790;DHT22;378;48.844;9.156;2024-02-23T14:38:57;9.30;99.90
790;DHT22;378;48.844;9.156;2024-02-23T14:41:39;9.20;99.90
790;DHT22;378;48.844;9.156;2024-02-23T14:44:31;9.30;99.90
790;DHT22;378;48.844;9.156;2024-02-23T14:47:20;9.30;99.90
790;DHT22;378;48.844;9.156;2024-02-23T14:50:15;9.30;99.90
790;DHT22;378;48.844;9.156;2024-02-23T14:52:53;9.20;99.90
790;DHT22;378;48.844;9.156;2024-02-23T14:55:34;9.20;99.90
790;DHT22;378;48.844;9.156;2024-02-23T14:58:25;9.20;99.90
790;DHT22;378;48.844;9.156;2024-02-23T15:01:12;9.20;99.90
790;DHT22;378;48.844;9.156;2024-02-23T15:04:03;9.20;99.90
790;DHT22;378;48.844;9.156;2024-02-23T15:06:41;9.10;99.90
790;DHT22;378;48.844;9.156;2024-02-23T15:09:20;9.10;99.90
790;DHT22;378;48.844;9.156;2024-02-23T15:11:49;9.10;99.90
790;DHT22;378;48.844;9.156;2024-02-23T15:14:16;9.10;99.90
790;DHT22;378;48.844;9.156;2024-02-23T15:16:48;9.10;99.90
790;DHT22;378;48.844;9.156;2024-02-23T15:19:18;9.00;99.90
790;DHT22;378;48.844;9.156;2024-02-23T15:21:59;9.00;99.90
790;DHT22;378;48.844;9.156;2024-02-23T15:25:09;9.00;99.90
790;DHT22;378;48.844;9.156;2024-02-23T15:30:27;9.00;99.90
790;DHT22;378;48.844;9.156;2024-02-23T15:33:05;8.90;99.90
790;DHT22;378;48.844;9.156;2024-02-23T15:36:02;8.90;99.90
790;DHT22;378;48.844;9.156;2024-02-23T15:38:38;8.90;99.90
790;DHT22;378;48.844;9.156;2024-02-23T15:41:17;8.80;99.90
790;DHT22;378;48.844;9.156;2024-02-23T15:44:11;8.60;99.90
790;DHT22;378;48.844;9.156;2024-02-23T15:47:07;8.50;99.90
790;DHT22;378;48.844;9.156;2024-02-23T15:49:50;8.50;99.90
790;DHT22;378;48.844;9.156;2024-02-23T15:52:32;8.40;99.90
790;DHT22;378;48.844;9.156;2024-02-23T15:55:18;8.30;99.90
790;DHT22;378;48.844;9.156;2024-02-23T15:58:00;8.10;99.90
790;DHT22;378;48.844;9.156;2024-02-23T16:00:58;8.00;99.90
790;DHT22;378;48.844;9.156;2024-02-23T16:03:43;7.80;99.90
790;DHT22;378;48.844;9.156;2024-02-23T16:06:19;7.60;99.90
790;DHT22;378;48.844;9.156;2024-02-23T16:09:03;7.50;99.90
790;DHT22;378;48.844;9.156;2024-02-23T16:11:54;7.40;99.90
790;DHT22;378;48.844;9.156;2024-02-23T16:14:28;7.50;99.90
790;DHT22;378;48.844;9.156;2024-02-23T16:17:24;7.40;99.90
790;DHT22;378;48.844;9.156;2024-02-23T16:19:59;7.40;99.90
790;DHT22;378;48.844;9.156;2024-02-23T16:23:05;7.30;99.90
790;DHT22;378;48.844;9.156;2024-02-23T16:26:07;7.20;99.90
790;DHT22;378;48.844;9.156;2024-02-23T16:29:08;7.20;99.90
790;DHT22;378;48.844;9.156;2024-02-23T16:32:14;7.10;99.90
790;DHT22;378;48.844;9.156;2024-02-23T16:34:58;7.10;99.90
790;DHT22;378;48.844;9.156;2024-02-23T16:44:07;7.10;99.90
790;DHT22;378;48.844;9.156;2024-02-23T16:46:59;7.00;99.90
790;DHT22;378;48.844;9.156;2024-02-23T16:49:44;7.00;99.90
790;DHT22;378;48.844;9.156;2024-02-23T16:55:25;7.00;99.90
790;DHT22;378;48.844;9.156;2024-02-23T16:58:17;6.90;99.90
790;DHT22;378;48.844;9.156;2024-02-23T17:01:11;7.00;99.90
790;DHT22;378;48.844;9.156;2024-02-23T17:03:42;7.00;99.90
790;DHT22;378;48.844;9.156;2024-02-23T17:06:34;7.00;99.90
790;DHT22;378;48.844;9.156;2024-02-23T17:09:30;7.00;99.90
790;DHT22;378;48.844;9.156;2024-02-23T17:12:21;6.90;99.90
790;DHT22;378;48.844;9.156;2024-02-23T17:15:09;6.90;99.90
790;DHT22;378;48.844;9.156;2024-02-23T17:17:44;7.00;99.90
790;DHT22;378;48.844;9.156;2024-02-23T17:20:27;7.00;99.90
790;DHT22;378;48.844;9.156;2024-02-23T17:23:57;6.90;99.90
790;DHT22;378;48.844;9.156;2024-02-23T17:26:43;7.00;99.90
790;DHT22;378;48.844;9.156;2024-02-23T17:29:39;7.00;99.90
790;DHT22;378;48.844;9.156;2024-02-23T17:35:47;7.00;99.90
790;DHT22;378;48.844;9.156;2024-02-23T17:38:34;7.00;99.90
790;DHT22;378;48.844;9.156;2024-02-23T17:41:12;7.00;99.90
790;DHT22;378;48.844;9.156;2024-02-23T17:44:11;7.00;99.90
790;DHT22;378;48.844;9.156;2024-02-23T17:47:14;7.00;99.90
790;DHT22;378;48.844;9.156;2024-02-23T17:49:45;7.00;99.90
790;DHT22;378;48.844;9.156;2024-02-23T17:52:13;7.10;99.90
790;DHT22;378;48.844;9.156;2024-02-23T17:54:41;7.10;99.90
790;DHT22;378;48.844;9.156;2024-02-23T17:57:08;7.10;99.90
790;DHT22;378;48.844;9.156;2024-02-23T18:15:35;7.30;99.90
790;DHT22;378;48.844;9.156;2024-02-23T18:18:02;7.40;99.90
790;DHT22;378;48.844;9.156;2024-02-23T18:20:27;7.40;99.90
790;DHT22;378;48.844;9.156;2024-02-23T18:22:54;7.40;99.90
790;DHT22;378;48.844;9.156;2024-02-23T18:25:22;7.40;99.90
790;DHT22;378;48.844;9.156;2024-02-23T18:27:49;7.40;99.90
790;DHT22;378;48.844;9.156;2024-02-23T18:30:16;7.40;99.90
790;DHT22;378;48.844;9.156;2024-02-23T18:32:44;7.40;99.90
790;DHT22;378;48.844;9.156;2024-02-23T18:35:11;7.40;99.90
790;DHT22;378;48.844;9.156;2024-02-23T18:37:38;7.40;99.90
790;DHT22;378;48.844;9.156;2024-02-23T18:40:06;7.40;99.90
790;DHT22;378;48.844;9.156;2024-02-23T18:42:34;7.40;99.90
790;DHT22;378;48.844;9.156;2024-02-23T18:45:01;7.40;99.90
790;DHT22;378;48.844;9.156;2024-02-23T18:47:29;7.40;99.90
790;DHT22;378;48.844;9.156;2024-02-23T18:49:57;7.40;99.90
790;DHT22;378;48.844;9.156;2024-02-23T18:52:25;7.30;99.90
790;DHT22;378;48.844;9.156;2024-02-23T18:54:52;7.30;99.90
790;DHT22;378;48.844;9.156;2024-02-23T18:57:19;7.30;99.90
790;DHT22;378;48.844;9.156;2024-02-23T18:59:46;7.20;99.90
790;DHT22;378;48.844;9.156;2024-02-23T19:02:13;7.20;99.90
790;DHT22;378;48.844;9.156;2024-02-23T19:04:40;7.20;99.90
790;DHT22;378;48.844;9.156;2024-02-23T19:07:08;7.10;99.90
790;DHT22;378;48.844;9.156;2024-02-23T19:09:35;7.10;99.90
790;DHT22;378;48.844;9.156;2024-02-23T19:12:04;7.10;99.90
790;DHT22;378;48.844;9.156;2024-02-23T19:14:33;7.00;99.90
790;DHT22;378;48.844;9.156;2024-02-23T19:17:00;7.00;99.90
790;DHT22;378;48.844;9.156;2024-02-23T19:19:27;7.00;99.90
790;DHT22;378;48.844;9.156;2024-02-23T19:21:54;7.00;99.90
790;DHT22;378;48.844;9.156;2024-02-23T19:24:22;7.00;99.90
790;DHT22;378;48.844;9.156;2024-02-23T19:26:53;7.00;99.90
790;DHT22;378;48.844;9.156;2024-02-23T19:29:20;7.00;99.90
790;DHT22;378;48.844;9.156;2024-02-23T19:31:46;6.90;99.90
790;DHT22;378;48.844;9.156;2024-02-23T19:34:13;6.90;99.90
790;DHT22;378;48.844;9.156;2024-02-23T19:36:40;6.80;99.90
790;DHT22;378;48.844;9.156;2024-02-23T19:39:07;6.80;99.90
790;DHT22;378;48.844;9.156;2024-02-23T19:41:41;6.80;99.90
790;DHT22;378;48.844;9.156;2024-02-23T19:44:08;6.70;99.90
790;DHT22;378;48.844;9.156;2024-02-23T19:46:35;6.70;99.90
790;DHT22;378;48.844;9.156;2024-02-23T19:49:02;6.70;99.90
790;DHT22;378;48.844;9.156;2024-02-23T19:51:29;6.70;99.90
790;DHT22;378;48.844;9.156;2024-02-23T19:53:56;6.70;99.90
790;DHT22;378;48.844;9.156;2024-02-23T19:56:23;6.70;99.90
790;DHT22;378;48.844;9.156;2024-02-23T19:58:51;6.70;99.90
790;DHT22;378;48.844;9.156;2024-02-23T20:01:18;6.70;99.90
790;DHT22;378;48.844;9.156;2024-02-23T20:03:46;6.70;99.90
790;DHT22;378;48.844;9.156;2024-02-23T20:06:13;6.70;99.90
790;DHT22;378;48.844;9.156;2024-02-23T20:08:40;6.60;99.90
790;DHT22;378;48.844;9.156;2024-02-23T20:11:07;6.60;99.90
790;DHT22;378;48.844;9.156;2024-02-23T20:13:34;6.60;99.90
790;DHT22;378;48.844;9.156;2024-02-23T20:16:03;6.60;99.90
790;DHT22;378;48.844;9.156;2024-02-23T20:18:30;6.50;99.90
790;DHT22;378;48.844;9.156;2024-02-23T20:20:57;6.50;99.90
790;DHT22;378;48.844;9.156;2024-02-23T20:23:24;6.50;99.90
790;DHT22;378;48.844;9.156;2024-02-23T20:25:51;6.50;99.90
790;DHT22;378;48.844;9.156;2024-02-23T20:28:17;6.50;99.90
790;DHT22;378;48.844;9.156;2024-02-23T20:30:45;6.50;99.90
790;DHT22;378;48.844;9.156;2024-02-23T20:33:13;6.30;99.90
790;DHT22;378;48.844;9.156;2024-02-23T20:35:40;6.30;99.90
790;DHT22;378;48.844;9.156;2024-02-23T20:38:07;6.30;99.90
790;DHT22;378;48.844;9.156;2024-02-23T20:40:34;6.30;99.90
790;DHT22;378;48.844;9.156;2024-02-23T20:43:01;6.20;99.90
790;DHT22;378;48.844;9.156;2024-02-23T20:45:28;6.20;99.90
790;DHT22;378;48.844;9.156;2024-02-23T20:47:55;6.20;99.90
790;DHT22;378;48.844;9.156;2024-02-23T20:50:23;6.20;99.90
790;DHT22;378;48.844;9.156;2024-02-23T20:52:50;6.10;99.90
790;DHT22;378;48.844;9.156;2024-02-23T20:55:18;6.10;99.90
790;DHT22;378;48.844;9.156;2024-02-23T20:57:44;6.10;99.90
790;DHT22;378;48.844;9.156;2024-02-23T21:00:12;6.10;99.90
790;DHT22;378;48.844;9.156;2024-02-23T21:02:39;6.10;99.90
790;DHT22;378;48.844;9.156;2024-02-23T21:05:07;6.00;99.90
790;DHT22;378;48.844;9.156;2024-02-23T21:07:35;6.00;99.90
790;DHT22;378;48.844;9.156;2024-02-23T21:10:02;6.00;99.90
790;DHT22;378;48.844;9.156;2024-02-23T21:12:29;6.00;99.90
790;DHT22;378;48.844;9.156;2024-02-23T21:14:56;5.90;99.90
790;DHT22;378;48.844;9.156;2024-02-23T21:17:23;5.90;99.90
790;DHT22;378;48.844;9.156;2024-02-23T21:19:49;5.90;99.90
790;DHT22;378;48.844;9.156;2024-02-23T21:22:16;5.90;99.90
790;DHT22;378;48.844;9.156;2024-02-23T21:24:45;5.90;99.90
790;DHT22;378;48.844;9.156;2024-02-23T21:27:12;5.80;99.90
790;DHT22;378;48.844;9.156;2024-02-23T21:29:40;5.80;99.90
790;DHT22;378;48.844;9.156;2024-02-23T21:32:07;5.70;99.90
790;DHT22;378;48.844;9.156;2024-02-23T21:34:34;5.60;99.90
790;DHT22;378;48.844;9.156;2024-02-23T21:37:01;5.60;99.90
790;DHT22;378;48.844;9.156;2024-02-23T21:39:27;5.50;99.90
790;DHT22;378;48.844;9.156;2024-02-23T21:41:56;5.50;99.90
790;DHT22;378;48.844;9.156;2024-02-23T21:44:23;5.50;99.90
790;DHT22;378;48.844;9.156;2024-02-23T21:46:50;5.50;99.90
790;DHT22;378;48.844;9.156;2024-02-23T21:49:16;5.50;99.90
790;DHT22;378;48.844;9.156;2024-02-23T21:51:43;5.50;99.90
790;DHT22;378;48.844;9.156;2024-02-23T21:54:10;5.50;99.90
790;DHT22;378;48.844;9.156;2024-02-23T21:56:37;5.50;99.90
790;DHT22;378;48.844;9.156;2024-02-23T21:59:05;5.50;99.90
790;DHT22;378;48.844;9.156;2024-02-23T22:01:32;5.50;99.90
790;DHT22;378;48.844;9.156;2024-02-23T22:04:00;5.50;99.90
790;DHT22;378;48.844;9.156;2024-02-23T22:06:26;5.50;99.90
790;DHT22;378;48.844;9.156;2024-02-23T22:08:53;5.50;99.90
790;DHT22;378;48.844;9.156;2024-02-23T22:11:20;5.50;99.90
790;DHT22;378;48.844;9.156;2024-02-23T22:13:47;5.50;99.90
790;DHT22;378;48.844;9.156;2024-02-23T22:16:15;5.50;99.90
790;DHT22;378;48.844;9.156;2024-02-23T22:18:42;5.50;99.90
790;DHT22;378;48.844;9.156;2024-02-23T22:21:09;5.40;99.90
790;DHT22;378;48.844;9.156;2024-02-23T22:23:36;5.40;99.90
790;DHT22;378;48.844;9.156;2024-02-23T22:26:03;5.40;99.90
790;DHT22;378;48.844;9.156;2024-02-23T22:28:30;5.40;99.90
790;DHT22;378;48.844;9.156;2024-02-23T22:30:57;5.40;99.90
790;DHT22;378;48.844;9.156;2024-02-23T22:33:25;5.40;99.90
790;DHT22;378;48.844;9.156;2024-02-23T22:35:52;5.40;99.90
790;DHT22;378;48.844;9.156;2024-02-23T22:38:19;5.40;99.90
790;DHT22;378;48.844;9.156;2024-02-23T22:40:45;5.30;99.90
790;DHT22;378;48.844;9.156;2024-02-23T22:43:12;5.30;99.90
790;DHT22;378;48.844;9.156;2024-02-23T22:45:39;5.30;99.90
790;DHT22;378;48.844;9.156;2024-02-23T22:48:06;5.30;99.90
790;DHT22;378;48.844;9.156;2024-02-23T22:50:35;5.30;99.90
790;DHT22;378;48.844;9.156;2024-02-23T22:53:02;5.20;99.90
790;DHT22;378;48.844;9.156;2024-02-23T22:55:30;5.20;99.90
790;DHT22;378;48.844;9.156;2024-02-23T22:57:57;5.20;99.90
790;DHT22;378;48.844;9.156;2024-02-23T23:00:24;5.20;99.90
790;DHT22;378;48.844;9.156;2024-02-23T23:02:50;5.20;99.90
790;DHT22;378;48.844;9.156;2024-02-23T23:05:17;5.20;99.90
790;DHT22;378;48.844;9.156;2024-02-23T23:07:47;5.20;99.90
790;DHT22;378;48.844;9.156;2024-02-23T23:10:14;5.10;99.90
790;DHT22;378;48.844;9.156;2024-02-23T23:12:41;5.00;99.90
790;DHT22;378;48.844;9.156;2024-02-23T23:15:08;5.00;99.90
790;DHT22;378;48.844;9.156;2024-02-23T23:17:35;5.00;99.90
790;DHT22;378;48.844;9.156;2024-02-23T23:20:02;5.00;99.90
790;DHT22;378;48.844;9.156;2024-02-23T23:22:31;4.90;99.90
790;DHT22;378;48.844;9.156;2024-02-23T23:24:59;4.90;99.90
790;DHT22;378;48.844;9.156;2024-02-23T23:27:26;4.80;99.90
790;DHT22;378;48.844;9.156;2024-02-23T23:29:53;4.80;99.90
790;DHT22;378;48.844;9.156;2024-02-23T23:32:20;4.70;99.90
790;DHT22;378;48.844;9.156;2024-02-23T23:34:46;4.70;99.90
790;DHT22;378;48.844;9.156;2024-02-23T23:37:12;4.80;99.90
790;DHT22;378;48.844;9.156;2024-02-23T23:39:39;4.80;99.90
790;DHT22;378;48.844;9.156;2024-02-23T23:42:07;4.80;99.90
790;DHT22;378;48.844;9.156;2024-02-23T23:44:34;4.80;99.90
790;DHT22;378;48.844;9.156;2024-02-23T23:47:01;4.70;99.90
790;DHT22;378;48.844;9.156;2024-02-23T23:49:28;4.60;99.90
790;DHT22;378;48.844;9.156;2024-02-23T23:51:55;4.60;99.90
790;DHT22;378;48.844;9.156;2024-02-23T23:54:22;4.60;99.90
790;DHT22;378;48.844;9.156;2024-02-23T23:56:48;4.70;99.90
790;DHT22;378;48.844;9.156;2024-02-23T23:59:16;4.70;99.90
